Time;durP1;ratioP1;P1;durP2;ratioP2;P2;SDS_P1;SDS_P2;PMS_P1;PMS_P2;Temp;Humidity;BMP_temperature;BMP_pressure;BME280_temperature;BME280_humidity;BME280_pressure;Samples;Min_cycle;Max_cycle;Signal;HPM_P1;HPM_P2
2021/06/11 00:00:27;;;;;;;8.98;5.89;;;;;;;17.69;76.13;98766.83;378681;106;1960992;-73
2021/06/11 00:02:14;;;;;;;9.68;5.63;;;;;;;17.83;76.05;98764.38;391192;104;2046950;-73
2021/06/11 00:04:10;;;;;;;8.52;5.98;;;;;;;17.74;76.07;98763.28;361108;111;1961936;-72
2021/06/11 00:05:55;;;;;;;8.59;6.04;;;;;;;17.86;75.69;98761.13;385181;107;2047015;-73
2021/06/11 00:07:18;;;;;;;7.96;5.73;;;;;;;17.76;75.71;98759.19;360663;110;1962004;-71
2021/06/11 00:08:30;;;;;;;7.53;5.51;;;;;;;17.77;75.59;98762.73;361815;109;1962013;-73
2021/06/11 00:09:37;;;;;;;8.62;5.96;;;;;;;17.76;75.46;98758.37;361790;109;1960767;-73
2021/06/11 00:10:49;;;;;;;8.73;5.66;;;;;;;17.83;75.77;98767.12;383888;104;1962047;-72
2021/06/11 00:11:55;;;;;;;11.32;6.22;;;;;;;17.73;75.64;98759.74;364896;107;1969872;-73
2021/06/11 00:13:09;;;;;;;10.04;6.42;;;;;;;17.88;75.61;98764.38;322263;109;2527957;-73
2021/06/11 00:14:16;;;;;;;8.39;5.49;;;;;;;17.78;75.53;98765.20;296498;112;2382842;-73
2021/06/11 00:15:23;;;;;;;9.34;6.33;;;;;;;17.82;75.33;98764.67;357921;110;1963919;-72
2021/06/11 00:16:35;;;;;;;7.94;5.62;;;;;;;17.92;75.24;98765.48;393989;104;1965028;-72
2021/06/11 00:17:40;;;;;;;8.36;6.18;;;;;;;17.83;75.04;98769.84;357741;107;2894073;-72
2021/06/11 00:18:52;;;;;;;8.50;6.23;;;;;;;17.96;75.09;98765.73;399061;104;1987025;-73
2021/06/11 00:19:57;;;;;;;8.49;5.74;;;;;;;17.81;74.94;98769.33;370815;105;1962032;-73
2021/06/11 00:21:03;;;;;;;8.58;5.78;;;;;;;17.78;74.98;98767.94;350693;105;2030851;-72
2021/06/11 00:22:15;;;;;;;8.17;6.14;;;;;;;17.84;75.20;98768.77;389241;104;2074121;-74
2021/06/11 00:23:22;;;;;;;7.98;5.78;;;;;;;17.73;75.12;98778.02;375248;107;1965034;-73
2021/06/11 00:24:34;;;;;;;8.05;5.91;;;;;;;17.79;75.33;98769.59;347188;104;2233008;-73
2021/06/11 00:25:40;;;;;;;8.67;5.80;;;;;;;17.66;75.45;98778.31;349144;106;1996915;-73
2021/06/11 00:27:06;;;;;;;9.06;5.85;;;;;;;17.64;75.38;98769.56;374180;106;1963115;-72
2021/06/11 00:28:18;;;;;;;8.41;5.75;;;;;;;17.75;75.49;98767.64;394289;104;1985976;-72
2021/06/11 00:29:23;;;;;;;7.14;5.03;;;;;;;17.63;75.48;98775.32;374980;105;1961845;-73
2021/06/11 00:30:30;;;;;;;8.53;5.63;;;;;;;17.62;75.55;98779.94;373775;107;1961011;-72
2021/06/11 00:31:36;;;;;;;8.38;5.73;;;;;;;17.64;75.53;98776.95;374871;107;1964793;-74
2021/06/11 00:32:42;;;;;;;8.45;5.48;;;;;;;17.66;75.51;98777.50;367343;107;1963022;-73
2021/06/11 00:33:54;;;;;;;8.64;5.83;;;;;;;17.76;75.54;98767.38;395621;104;1965029;-73
2021/06/11 00:34:59;;;;;;;8.19;5.58;;;;;;;17.70;75.44;98773.11;368154;107;1961989;-73
2021/06/11 00:36:11;;;;;;;9.16;5.48;;;;;;;17.86;75.14;98769.32;404133;101;1987035;-74
2021/06/11 00:37:17;;;;;;;8.18;5.61;;;;;;;17.76;75.12;98766.57;381088;104;1962002;-72
2021/06/11 00:38:31;;;;;;;8.31;5.78;;;;;;;17.91;75.04;98771.20;394273;104;2073970;-72
2021/06/11 00:39:37;;;;;;;8.00;5.36;;;;;;;17.82;74.89;98770.95;379430;105;1961948;-73
2021/06/11 00:41:01;;;;;;;7.84;5.12;;;;;;;17.83;74.73;98774.50;379707;105;1962030;-73
2021/06/11 00:42:07;;;;;;;9.94;5.71;;;;;;;17.80;74.78;98775.87;368643;108;1961980;-72
2021/06/11 00:43:19;;;;;;;7.54;5.34;;;;;;;17.88;74.94;98771.77;396984;104;1962027;-72
2021/06/11 00:44:24;;;;;;;8.30;5.52;;;;;;;17.73;75.03;98776.13;380310;105;1970048;-72
2021/06/11 00:45:36;;;;;;;7.53;5.13;;;;;;;17.85;74.96;98775.86;392742;104;1985997;-72
2021/06/11 00:46:43;;;;;;;8.12;5.16;;;;;;;17.74;74.91;98779.67;372253;105;1963940;-72
2021/06/11 00:48:08;;;;;;;7.82;5.20;;;;;;;17.71;75.10;98775.58;372614;108;1961915;-73
2021/06/11 00:49:14;;;;;;;7.21;5.02;;;;;;;17.74;74.96;98777.76;370989;107;1962976;-72
2021/06/11 00:50:29;;;;;;;8.04;5.46;;;;;;;17.86;74.93;98769.32;385803;104;2072031;-74
2021/06/11 00:51:34;;;;;;;7.46;5.34;;;;;;;17.74;74.98;98760.55;380735;105;1961974;-72
2021/06/11 00:52:40;;;;;;;7.52;5.51;;;;;;;17.68;75.14;98767.94;380975;105;1962094;-73
2021/06/11 00:53:54;;;;;;;9.17;5.32;;;;;;;17.80;75.18;98767.67;349725;104;2589998;-71
2021/06/11 00:55:00;;;;;;;8.31;5.48;;;;;;;17.67;75.24;98771.75;374117;105;1962973;-72
2021/06/11 00:56:12;;;;;;;7.59;5.21;;;;;;;17.73;75.14;98756.17;386400;104;2892014;-72
2021/06/11 00:57:18;;;;;;;8.95;5.53;;;;;;;17.73;74.85;98770.67;370794;106;1962096;-73
2021/06/11 00:58:24;;;;;;;9.43;5.24;;;;;;;17.74;74.89;98776.95;329285;107;2880940;-73
2021/06/11 00:59:40;;;;;;;7.80;4.97;;;;;;;17.81;75.18;98774.80;393760;104;1972931;-72
2021/06/11 01:00:48;;;;;;;8.14;5.21;;;;;;;17.72;74.95;98782.67;375197;107;1962015;-73
2021/06/11 01:02:01;;;;;;;8.50;5.07;;;;;;;17.84;74.89;98771.50;348032;106;2660983;-72
2021/06/11 01:03:07;;;;;;;10.59;5.35;;;;;;;17.70;75.03;98778.58;332862;111;2051923;-71
2021/06/11 01:04:19;;;;;;;7.64;5.02;;;;;;;17.82;74.91;98772.88;402160;101;1988009;-72
2021/06/11 01:05:24;;;;;;;7.33;4.91;;;;;;;17.70;74.90;98773.95;380731;105;1961982;-72
2021/06/11 01:06:50;;;;;;;7.16;4.80;;;;;;;17.73;74.82;98780.75;311868;105;2487018;-72
2021/06/11 01:07:57;;;;;;;6.58;4.54;;;;;;;17.72;74.91;98777.20;378775;105;1961945;-70
2021/06/11 01:09:11;;;;;;;8.14;4.67;;;;;;;17.83;75.01;98777.23;341603;104;2509955;-72
2021/06/11 01:10:17;;;;;;;7.66;4.49;;;;;;;17.72;74.96;98776.39;374476;107;1962996;-72
2021/06/11 01:11:24;;;;;;;7.14;5.27;;;;;;;17.71;74.90;98783.77;374271;105;1962003;-72
2021/06/11 01:12:31;;;;;;;8.15;4.81;;;;;;;17.74;74.87;98777.76;376276;105;1962469;-72
2021/06/11 01:13:37;;;;;;;7.76;4.64;;;;;;;17.77;74.79;98787.31;377146;106;1961800;-72
2021/06/11 01:14:51;;;;;;;8.48;5.38;;;;;;;17.91;74.70;98782.13;407010;101;1986910;-72
2021/06/11 01:15:57;;;;;;;7.42;4.97;;;;;;;17.80;74.61;98776.68;387189;103;1961823;-72
2021/06/11 01:17:03;;;;;;;9.61;5.51;;;;;;;17.84;74.46;98776.97;341037;103;2811904;-72
2021/06/11 01:18:18;;;;;;;7.00;4.34;;;;;;;17.96;74.37;98773.93;402434;101;1987012;-72
2021/06/11 01:19:28;;;;;;;7.70;4.85;;;;;;;17.88;74.27;98775.30;308618;104;2442957;-72
2021/06/11 01:20:41;;;;;;;7.57;4.77;;;;;;;17.96;74.29;98777.48;385440;104;1985986;-72
2021/06/11 01:21:55;;;;;;;6.63;4.78;;;;;;;17.83;74.34;98772.58;373291;106;1963055;-72
2021/06/11 01:23:26;;;;;;;7.55;4.93;;;;;;;17.84;74.24;98778.89;371234;107;1963940;-73
2021/06/11 01:24:43;;;;;;;8.32;5.76;;;;;;;17.92;74.41;98775.59;405636;101;1985988;-73
2021/06/11 01:26:18;;;;;;;7.31;4.73;;;;;;;17.80;74.37;98784.06;388895;103;1962017;-71
2021/06/11 01:27:33;;;;;;;5.99;4.20;;;;;;;17.91;74.43;98780.22;392496;104;1985941;-71
2021/06/11 01:28:40;;;;;;;6.96;4.74;;;;;;;17.78;74.41;98781.59;364554;107;1963995;-73
2021/06/11 01:29:49;;;;;;;8.14;5.06;;;;;;;17.80;74.38;98781.33;374264;107;1962008;-71
2021/06/11 01:31:00;;;;;;;7.42;4.98;;;;;;;17.93;74.34;98788.15;385107;106;1986973;-72
2021/06/11 01:32:07;;;;;;;6.45;4.76;;;;;;;17.80;74.36;98786.80;368656;108;1962011;-72
2021/06/11 01:33:22;;;;;;;7.47;4.85;;;;;;;17.90;74.36;98786.78;361737;104;2636074;-71
2021/06/11 01:34:31;;;;;;;8.01;5.04;;;;;;;17.80;74.38;98790.34;374527;107;1962047;-72
2021/06/11 01:36:00;;;;;;;7.18;4.57;;;;;;;17.82;74.29;98787.34;373861;107;1961824;-73
2021/06/11 01:37:22;;;;;;;7.83;5.22;;;;;;;18.00;74.08;98783.23;392111;104;1985572;-72
2021/06/11 01:38:35;;;;;;;6.49;4.58;;;;;;;17.89;74.00;98781.58;341780;107;2051872;-73
2021/06/11 01:39:49;;;;;;;9.61;4.99;;;;;;;18.05;73.85;98785.95;395494;104;1986071;-74
2021/06/11 01:41:03;;;;;;;8.09;5.23;;;;;;;18.04;73.83;98784.30;393435;104;1986040;-72
2021/06/11 01:42:09;;;;;;;9.21;5.27;;;;;;;17.95;73.66;98781.31;328608;106;2807947;-72
2021/06/11 01:43:25;;;;;;;9.27;5.58;;;;;;;18.10;73.46;98785.95;394024;104;1963743;-73
2021/06/11 01:44:31;;;;;;;7.91;5.52;;;;;;;17.97;73.42;98790.06;372584;107;1962032;-73
2021/06/11 01:45:55;;;;;;;8.31;5.48;;;;;;;17.96;73.44;98785.67;338189;107;2659982;-71
2021/06/11 01:47:02;;;;;;;8.26;5.08;;;;;;;17.96;73.36;98782.94;352551;107;1961953;-71
2021/06/11 01:48:18;;;;;;;8.29;4.83;;;;;;;18.04;73.43;98778.02;344999;103;2547987;-72
2021/06/11 01:49:27;;;;;;;7.29;5.09;;;;;;;17.91;73.54;98790.33;376227;107;1961992;-72
2021/06/11 01:50:40;;;;;;;11.77;5.87;;;;;;;18.00;73.62;98781.31;398201;103;1985903;-74
2021/06/11 01:51:46;;;;;;;9.87;5.43;;;;;;;17.86;73.68;98785.72;376070;107;1962019;-71
2021/06/11 01:53:12;;;;;;;8.11;5.71;;;;;;;17.82;73.84;98786.53;373156;107;1961877;-72
2021/06/11 01:54:25;;;;;;;7.23;5.55;;;;;;;17.90;74.08;98786.78;377389;106;1986938;-72
2021/06/11 01:55:33;;;;;;;8.01;5.33;;;;;;;17.80;73.93;98789.52;364904;109;1962997;-72
2021/06/11 01:56:47;;;;;;;8.77;5.55;;;;;;;17.93;73.90;98786.23;393422;104;1985864;-72
2021/06/11 01:57:53;;;;;;;8.49;5.38;;;;;;;17.80;73.92;98784.88;368722;109;1961878;-72
2021/06/11 01:59:17;;;;;;;8.64;5.22;;;;;;;17.83;73.82;98793.62;343715;109;2006026;-72
2021/06/11 02:00:29;;;;;;;10.48;6.21;;;;;;;17.90;74.07;98797.72;401676;101;2073052;-74
2021/06/11 02:01:35;;;;;;;9.10;5.31;;;;;;;17.81;73.98;98796.65;383238;103;1962047;-72
2021/06/11 02:02:41;;;;;;;8.02;5.63;;;;;;;17.80;73.96;98787.61;377547;105;1962023;-72
2021/06/11 02:03:55;;;;;;;7.79;4.64;;;;;;;17.87;74.15;98795.54;389349;103;1961954;-72
2021/06/11 02:05:03;;;;;;;8.07;5.09;;;;;;;17.75;74.23;98793.04;379014;105;1970011;-72
2021/06/11 02:06:18;;;;;;;7.79;5.39;;;;;;;17.89;74.22;98804.28;395260;104;1985985;-71
2021/06/11 02:07:25;;;;;;;7.98;5.53;;;;;;;17.79;74.03;98794.17;326741;107;2810041;-72
2021/06/11 02:08:32;;;;;;;7.72;5.32;;;;;;;17.78;74.08;98792.52;365461;107;1962038;-72
2021/06/11 02:09:48;;;;;;;8.46;5.38;;;;;;;17.92;73.97;98792.80;390966;106;1973059;-72
2021/06/11 02:10:53;;;;;;;8.12;4.86;;;;;;;17.82;74.09;98797.45;375345;107;1961993;-72
2021/06/11 02:12:00;;;;;;;9.63;5.72;;;;;;;17.81;74.06;98802.11;366451;108;1962003;-73
2021/06/11 02:13:25;;;;;;;7.80;5.02;;;;;;;17.82;74.04;98795.54;368397;107;1962015;-73
2021/06/11 02:14:39;;;;;;;9.19;5.52;;;;;;;17.95;73.92;98794.98;394688;104;1971978;-73
2021/06/11 02:15:45;;;;;;;8.64;4.72;;;;;;;17.84;73.88;98798.83;372669;106;1962086;-72
2021/06/11 02:17:00;;;;;;;9.02;5.85;;;;;;;17.94;74.07;98797.97;336492;108;2775009;-72
2021/06/11 02:18:05;;;;;;;10.88;5.60;;;;;;;17.83;74.01;98808.09;355367;112;1962010;-72
2021/06/11 02:19:34;;;;;;;10.32;6.07;;;;;;;17.75;74.36;98808.62;314820;113;2883937;-72
2021/06/11 02:20:41;;;;;;;8.67;5.64;;;;;;;17.77;74.20;98795.52;353469;113;1962026;-72
2021/06/11 02:21:54;;;;;;;9.00;5.65;;;;;;;17.81;74.65;98796.65;396560;104;1986078;-72
2021/06/11 02:23:07;;;;;;;12.87;5.69;;;;;;;17.86;74.32;98804.00;374196;104;1988063;-71
2021/06/11 02:24:33;;;;;;;8.91;5.86;;;;;;;17.71;74.59;98804.81;372842;106;1962034;-72
2021/06/11 02:25:46;;;;;;;9.43;5.63;;;;;;;17.80;74.74;98800.45;397307;104;1985951;-73
2021/06/11 02:26:53;;;;;;;8.90;5.73;;;;;;;17.70;74.78;98808.62;375193;105;1961893;-72
2021/06/11 02:28:17;;;;;;;9.02;5.72;;;;;;;17.74;74.54;98799.61;377829;105;1961833;-73
2021/06/11 02:29:29;;;;;;;9.03;5.72;;;;;;;17.87;74.46;98803.73;335252;109;2197034;-73
2021/06/11 02:30:35;;;;;;;7.92;5.60;;;;;;;17.77;74.31;98804.52;334888;115;1969825;-72
2021/06/11 02:31:41;;;;;;;8.06;5.68;;;;;;;17.78;74.32;98797.98;345046;117;1961948;-73
2021/06/11 02:32:53;;;;;;;9.85;5.94;;;;;;;17.88;74.43;98802.63;391346;103;2071949;-72
2021/06/11 02:34:00;;;;;;;9.71;6.03;;;;;;;17.79;74.48;98801.56;375402;107;1963849;-74
2021/06/11 02:35:15;;;;;;;9.31;5.44;;;;;;;17.93;74.37;98804.55;362425;106;1997013;-72
2021/06/11 02:36:29;;;;;;;8.83;5.25;;;;;;;17.85;74.39;98791.44;332930;104;2373977;-73
2021/06/11 02:37:36;;;;;;;8.26;5.39;;;;;;;17.83;74.42;98818.20;377410;106;1961980;-72
2021/06/11 02:38:41;;;;;;;8.36;5.66;;;;;;;17.85;74.23;98802.37;376836;106;1961968;-73
2021/06/11 02:39:54;;;;;;;8.44;5.94;;;;;;;17.96;74.29;98796.60;352635;104;2752986;-72
2021/06/11 02:41:01;;;;;;;8.58;5.78;;;;;;;17.85;74.33;98802.37;332379;106;2143944;-72
2021/06/11 02:42:16;;;;;;;9.32;5.64;;;;;;;17.99;74.18;98800.70;391624;104;1987019;-72
2021/06/11 02:43:31;;;;;;;10.04;6.03;;;;;;;18.03;74.05;98801.80;397017;104;1986027;-74
2021/06/11 02:44:57;;;;;;;8.39;5.64;;;;;;;17.93;73.98;98804.55;373327;107;1961972;-73
2021/06/11 02:46:15;;;;;;;8.77;5.67;;;;;;;17.91;74.10;98806.72;374466;107;1962135;-74
2021/06/11 02:47:44;;;;;;;10.47;5.17;;;;;;;18.05;73.92;98802.34;393177;104;1986056;-73
2021/06/11 02:49:25;;;;;;;9.16;5.51;;;;;;;17.98;73.76;98804.54;374827;107;1962027;-72
2021/06/11 02:50:47;;;;;;;8.77;5.50;;;;;;;18.08;73.75;98817.38;391584;104;1986044;-72
2021/06/11 02:51:55;;;;;;;9.34;5.99;;;;;;;17.97;73.69;98817.39;374214;106;1961974;-73
2021/06/11 02:53:26;;;;;;;9.64;5.27;;;;;;;17.98;73.73;98821.75;321964;108;2855337;-72
2021/06/11 02:54:39;;;;;;;9.94;6.35;;;;;;;18.05;73.89;98813.28;331209;104;2506694;-72
2021/06/11 02:55:55;;;;;;;9.88;5.58;;;;;;;18.06;73.79;98814.91;392306;104;1987955;-73
2021/06/11 02:57:31;;;;;;;9.11;5.78;;;;;;;17.96;73.84;98815.73;381338;105;1961112;-73
2021/06/11 02:58:53;;;;;;;8.16;5.69;;;;;;;18.09;73.79;98814.35;393072;104;1986870;-73
2021/06/11 03:00:02;;;;;;;8.35;5.65;;;;;;;17.96;73.86;98813.00;376770;106;1961974;-73
2021/06/11 03:01:10;;;;;;;7.98;5.47;;;;;;;17.98;73.92;98818.20;313239;106;2523004;-72
2021/06/11 03:02:19;;;;;;;8.16;5.71;;;;;;;17.97;73.94;98816.58;371440;106;1963064;-72
2021/06/11 03:03:35;;;;;;;8.44;5.69;;;;;;;18.14;73.69;98814.34;394122;104;1985953;-74
2021/06/11 03:04:45;;;;;;;8.37;5.85;;;;;;;18.07;73.56;98815.72;360919;107;1962011;-72
2021/06/11 03:06:00;;;;;;;7.75;5.31;;;;;;;18.16;73.63;98819.55;398733;103;1986919;-72
2021/06/11 03:07:08;;;;;;;8.00;5.53;;;;;;;18.08;73.46;98814.64;351076;105;2023567;-72
2021/06/11 03:08:36;;;;;;;8.58;5.18;;;;;;;18.06;73.63;98825.03;329996;105;2236938;-72
2021/06/11 03:09:48;;;;;;;8.24;5.61;;;;;;;18.10;73.79;98821.47;395780;103;1984904;-73
2021/06/11 03:10:58;;;;;;;9.84;5.83;;;;;;;17.98;73.79;98819.02;377007;105;1961092;-73
2021/06/11 03:12:13;;;;;;;8.87;5.58;;;;;;;18.11;73.85;98817.63;394145;104;1986820;-73
2021/06/11 03:13:30;;;;;;;8.84;5.16;;;;;;;17.94;74.14;98823.41;350949;108;1963084;-73
2021/06/11 03:14:54;;;;;;;10.61;5.40;;;;;;;17.98;73.95;98826.40;324072;109;2788030;-73
2021/06/11 03:16:06;;;;;;;9.29;5.36;;;;;;;18.03;74.25;98829.13;392351;104;1965872;-74
2021/06/11 03:17:13;;;;;;;8.91;5.50;;;;;;;17.93;74.16;98829.13;374330;107;1962003;-72
2021/06/11 03:18:29;;;;;;;8.39;5.03;;;;;;;18.04;74.13;98824.47;379060;104;1985972;-71
2021/06/11 03:19:38;;;;;;;8.68;5.26;;;;;;;17.93;74.07;98826.41;373597;107;1963849;-72
2021/06/11 03:21:06;;;;;;;9.59;5.60;;;;;;;17.94;74.25;98820.67;331995;105;2616910;-72
2021/06/11 03:22:31;;;;;;;8.21;5.59;;;;;;;18.07;73.90;98808.34;397808;104;1988931;-71
2021/06/11 03:23:44;;;;;;;10.41;6.79;;;;;;;18.02;73.80;98827.50;381044;105;1962008;-73
2021/06/11 03:25:18;;;;;;;9.26;5.38;;;;;;;18.05;74.32;98821.48;402528;101;1985933;-72
2021/06/11 03:26:47;;;;;;;9.49;5.94;;;;;;;18.14;74.00;98813.53;392152;104;1986012;-74
2021/06/11 03:28:17;;;;;;;8.32;5.19;;;;;;;18.08;73.74;98822.84;361271;106;1962936;-72
2021/06/11 03:29:39;;;;;;;9.14;5.47;;;;;;;18.22;73.54;98823.90;394839;101;2936072;-71
2021/06/11 03:30:54;;;;;;;8.14;5.57;;;;;;;18.09;73.68;98829.94;383416;104;1962006;-71
2021/06/11 03:32:24;;;;;;;;;;;;;;;18.08;73.68;98814.64;382754;105;1960934;-72
2021/06/11 03:33:40;;;;;;;8.26;5.24;;;;;;;18.25;73.76;98826.08;330479;104;2500792;-72
2021/06/11 03:34:48;;;;;;;9.29;5.55;;;;;;;18.18;73.44;98823.64;368987;109;1963065;-72
2021/06/11 03:36:16;;;;;;;8.81;4.91;;;;;;;18.36;73.19;98826.86;385734;106;1986009;-73
2021/06/11 03:37:25;;;;;;;8.11;5.57;;;;;;;18.28;72.90;98822.78;366407;109;1963027;-73
2021/06/11 03:38:55;;;;;;;7.72;5.10;;;;;;;18.29;72.81;98821.70;361660;109;1966012;-72
2021/06/11 03:40:11;;;;;;;7.28;4.80;;;;;;;18.36;73.04;98824.12;395468;104;1986970;-72
2021/06/11 03:41:33;;;;;;;8.43;5.48;;;;;;;18.42;72.91;98826.59;348996;103;2847940;-72
2021/06/11 03:42:58;;;;;;;7.96;5.23;;;;;;;18.31;72.79;98822.25;369213;106;1962082;-72
2021/06/11 03:44:07;;;;;;;11.12;5.44;;;;;;;18.30;72.81;98826.06;377443;106;1963792;-72
2021/06/11 03:45:21;;;;;;;9.22;5.78;;;;;;;18.40;72.79;98825.23;401543;104;1985933;-73
2021/06/11 03:46:31;;;;;;;9.74;5.66;;;;;;;18.30;72.79;98825.25;377678;106;1961994;-71
2021/06/11 03:47:44;;;;;;;7.71;4.99;;;;;;;18.42;72.77;98823.05;387622;106;1986014;-71
2021/06/11 03:48:52;;;;;;;7.63;5.27;;;;;;;18.28;72.87;98827.44;346143;109;1962047;-70
2021/06/11 03:50:20;;;;;;;8.28;5.34;;;;;;;18.30;72.79;98823.33;363405;110;1962036;-71
2021/06/11 03:51:26;;;;;;;8.98;5.26;;;;;;;18.34;72.70;98824.42;324951;111;2137020;-72
2021/06/11 03:52:41;;;;;;;10.27;6.41;;;;;;;18.44;72.67;98821.67;392497;104;1973043;-72
2021/06/11 03:53:48;;;;;;;8.94;5.42;;;;;;;18.34;72.74;98823.61;349835;107;1990992;-72
2021/06/11 03:55:10;;;;;;;8.73;5.34;;;;;;;18.45;72.67;98828.77;392809;104;1987086;-73
2021/06/11 03:56:19;;;;;;;8.62;5.98;;;;;;;18.33;72.75;98830.97;376019;106;1961967;-72
2021/06/11 03:57:45;;;;;;;9.44;5.47;;;;;;;18.34;72.67;98831.81;349748;107;2866036;-73
2021/06/11 03:58:59;;;;;;;9.32;5.89;;;;;;;18.41;72.95;98829.59;395688;104;1987047;-71
2021/06/11 04:00:06;;;;;;;9.21;5.76;;;;;;;18.32;72.86;98828.53;376889;106;1961925;-73
2021/06/11 04:01:24;;;;;;;7.44;4.99;;;;;;;18.47;72.79;98825.77;386025;103;2950844;-71
2021/06/11 04:02:30;;;;;;;8.09;5.62;;;;;;;18.40;72.68;98830.70;352032;106;1977967;-73
2021/06/11 04:03:54;;;;;;;9.91;5.65;;;;;;;18.40;72.61;98831.51;377692;106;1961934;-71
2021/06/11 04:05:07;;;;;;;8.26;5.45;;;;;;;18.55;72.58;98833.39;337636;104;2322057;-72
2021/06/11 04:06:22;;;;;;;8.32;5.31;;;;;;;18.45;72.44;98834.23;373446;107;1962051;-73
2021/06/11 04:07:54;;;;;;;8.16;5.43;;;;;;;18.59;72.47;98831.72;394055;104;1986071;-72
2021/06/11 04:09:06;;;;;;;8.23;5.46;;;;;;;18.52;72.43;98841.31;368347;108;1962013;-71
2021/06/11 04:10:39;;;;;;;7.97;5.09;;;;;;;18.52;72.40;98836.66;372109;107;1963959;-73
2021/06/11 04:12:07;;;;;;;11.57;5.63;;;;;;;18.72;72.16;98840.44;378849;108;1985810;-74
2021/06/11 04:13:55;;;;;;;8.81;5.15;;;;;;;18.71;71.97;98836.05;365509;103;2057058;-72
2021/06/11 04:15:02;;;;;;;8.34;4.92;;;;;;;18.62;71.86;98835.81;360324;105;1961980;-74
2021/06/11 04:16:18;;;;;;;7.40;4.90;;;;;;;18.79;71.81;98835.52;388184;105;1962091;-73
2021/06/11 04:17:34;;;;;;;8.94;4.90;;;;;;;18.87;71.59;98843.15;381025;106;1985838;-73
2021/06/11 04:19:01;;;;;;;8.37;5.00;;;;;;;18.83;71.21;98837.40;349533;112;1963896;-73
2021/06/11 04:20:17;;;;;;;10.26;5.17;;;;;;;19.00;71.04;98839.80;393546;104;1994026;-72
2021/06/11 04:21:23;;;;;;;8.80;5.04;;;;;;;18.96;71.11;98844.19;373958;107;1961993;-73
2021/06/11 04:22:49;;;;;;;7.89;5.20;;;;;;;19.04;70.48;98846.33;374843;107;1962015;-72
2021/06/11 04:24:05;;;;;;;9.01;5.07;;;;;;;19.16;70.29;98842.44;392977;104;1986982;-73
2021/06/11 04:25:13;;;;;;;9.17;4.79;;;;;;;19.04;70.27;98840.05;356785;107;1962007;-71
2021/06/11 04:26:28;;;;;;;8.81;4.81;;;;;;;19.16;70.25;98845.17;358978;104;2630028;-73
2021/06/11 04:27:36;;;;;;;8.88;4.79;;;;;;;19.04;70.26;98846.33;368532;107;1961946;-72
2021/06/11 04:28:43;;;;;;;8.02;4.67;;;;;;;19.06;70.11;98841.41;314505;107;2304161;-72
2021/06/11 04:29:57;;;;;;;7.18;4.83;;;;;;;19.14;70.25;98844.66;392691;103;1986966;-73
2021/06/11 04:31:03;;;;;;;7.72;4.98;;;;;;;19.07;70.08;98839.48;318449;105;2581046;-73
2021/06/11 04:32:08;;;;;;;8.33;4.89;;;;;;;19.07;70.17;98851.23;340666;105;2104015;-73
2021/06/11 04:33:27;;;;;;;8.17;4.47;;;;;;;19.07;70.18;98832.08;403811;101;1986012;-73
2021/06/11 04:34:40;;;;;;;8.77;4.70;;;;;;;19.20;70.12;98846.26;355945;101;2851005;-73
2021/06/11 04:36:03;;;;;;;8.24;5.23;;;;;;;19.07;70.25;98850.42;384770;105;1962017;-72
2021/06/11 04:37:19;;;;;;;8.94;4.98;;;;;;;19.20;70.12;98841.59;349860;103;2162967;-74
2021/06/11 04:38:25;;;;;;;8.87;5.11;;;;;;;19.16;70.01;98853.38;370662;107;1961929;-74
2021/06/11 04:39:49;;;;;;;8.34;5.15;;;;;;;19.17;70.00;98844.91;370677;107;1961040;-72
2021/06/11 04:41:02;;;;;;;8.41;5.23;;;;;;;19.28;69.89;98845.66;381724;104;3004015;-72
2021/06/11 04:42:09;;;;;;;8.11;5.71;;;;;;;19.23;69.76;98853.90;367637;107;2856059;-75
2021/06/11 04:43:24;;;;;;;9.48;5.33;;;;;;;19.38;69.74;98853.00;381987;104;2003018;-73
2021/06/11 04:44:29;;;;;;;8.30;5.73;;;;;;;19.22;69.77;98849.54;375770;107;1961924;-73
2021/06/11 04:45:54;;;;;;;8.29;5.72;;;;;;;19.18;69.78;98845.71;329666;107;2792038;-73
2021/06/11 04:47:06;;;;;;;10.50;5.99;;;;;;;19.27;69.78;98839.38;391015;103;1964058;-74
2021/06/11 04:48:13;;;;;;;10.46;6.18;;;;;;;19.07;70.29;98851.23;364969;110;1961956;-73
2021/06/11 04:49:25;;;;;;;9.79;7.10;;;;;;;19.19;70.34;98850.92;389055;103;2071003;-73
2021/06/11 04:50:31;;;;;;;8.90;6.14;;;;;;;19.08;70.35;98846.61;376650;106;1962011;-72
2021/06/11 04:51:54;;;;;;;11.60;5.73;;;;;;;19.02;70.78;98847.71;375537;105;1961845;-74
2021/06/11 04:53:06;;;;;;;7.70;5.05;;;;;;;19.13;70.83;98853.95;393047;104;1985987;-74
2021/06/11 04:54:12;;;;;;;8.84;5.78;;;;;;;19.04;70.54;98849.07;358039;105;1962001;-74
2021/06/11 04:55:17;;;;;;;9.61;5.01;;;;;;;19.10;70.42;98858.07;348950;106;1976927;-74
2021/06/11 04:56:30;;;;;;;9.17;5.15;;;;;;;19.27;70.34;98853.06;394154;104;1986029;-70
2021/06/11 04:57:35;;;;;;;10.64;5.29;;;;;;;19.23;70.21;98859.38;368436;107;1962007;-69
2021/06/11 04:58:49;;;;;;;8.58;4.84;;;;;;;19.41;69.92;98847.77;376428;108;1985997;-71
2021/06/11 04:59:54;;;;;;;9.21;5.26;;;;;;;19.35;69.79;98851.64;358913;112;1962646;-71
2021/06/11 05:01:18;;;;;;;8.17;5.43;;;;;;;19.42;69.67;98854.87;360171;112;1962082;-71
2021/06/11 05:02:30;;;;;;;9.03;6.00;;;;;;;19.61;69.13;98857.77;391232;104;2071979;-70
2021/06/11 05:03:36;;;;;;;11.28;6.39;;;;;;;19.44;69.36;98858.14;374841;106;1962050;-70
2021/06/11 05:04:42;;;;;;;9.64;6.59;;;;;;;19.41;69.29;98855.98;374033;107;1962970;-70
2021/06/11 05:05:54;;;;;;;9.97;6.84;;;;;;;19.43;69.69;98856.52;393100;104;1986061;-71
2021/06/11 05:07:01;;;;;;;10.12;6.26;;;;;;;19.28;69.91;98862.90;334906;106;2640907;-70
2021/06/11 05:08:13;;;;;;;12.57;6.08;;;;;;;19.35;69.79;98854.38;395470;104;1985984;-70
2021/06/11 05:09:20;;;;;;;8.72;6.41;;;;;;;19.21;70.18;98858.83;375125;105;1961759;-70
2021/06/11 05:10:44;;;;;;;9.57;5.76;;;;;;;19.17;69.93;98853.11;375997;105;1961979;-71
2021/06/11 05:11:57;;;;;;;10.43;5.76;;;;;;;19.13;70.61;98854.77;338674;106;2236014;-70
2021/06/11 05:13:03;;;;;;;9.38;5.49;;;;;;;18.90;71.03;98856.27;335855;114;1962091;-71
2021/06/11 05:14:15;;;;;;;7.99;5.34;;;;;;;19.01;71.27;98857.84;393949;104;1987029;-70
2021/06/11 05:15:27;;;;;;;8.22;5.28;;;;;;;19.05;71.45;98847.14;387475;106;1986015;-70
2021/06/11 05:16:51;;;;;;;9.06;5.75;;;;;;;19.03;71.29;98843.89;366538;108;1961987;-70
2021/06/11 05:18:05;;;;;;;8.39;5.83;;;;;;;19.27;70.89;98849.51;394229;104;1986020;-70
2021/06/11 05:19:11;;;;;;;7.95;4.35;;;;;;;19.27;70.54;98852.25;374756;105;1963015;-71
2021/06/11 05:20:37;;;;;;;7.73;5.31;;;;;;;19.37;70.37;98849.45;374766;105;1963005;-70
2021/06/11 05:21:43;;;;;;;8.21;5.14;;;;;;;19.47;69.66;98859.50;375911;105;1962081;-70
2021/06/11 05:22:48;;;;;;;10.46;5.57;;;;;;;19.48;69.38;98848.27;363602;109;1961927;-70
2021/06/11 05:23:54;;;;;;;9.76;5.41;;;;;;;19.60;69.46;98852.57;369943;107;1963008;-70
2021/06/11 05:25:07;;;;;;;8.72;5.79;;;;;;;19.87;68.80;98858.43;398505;104;1986016;-69
2021/06/11 05:26:13;;;;;;;11.44;6.06;;;;;;;19.74;68.29;98848.94;334935;105;2094829;-70
2021/06/11 05:27:18;;;;;;;9.82;6.22;;;;;;;19.80;68.33;98859.86;376744;105;1962000;-71
2021/06/11 05:28:32;;;;;;;9.90;6.71;;;;;;;19.93;68.30;98854.53;392402;104;1987966;-70
2021/06/11 05:29:37;;;;;;;8.16;5.39;;;;;;;19.78;68.26;98860.13;374166;106;1963508;-70
2021/06/11 05:30:44;;;;;;;9.53;6.32;;;;;;;19.79;68.21;98861.76;375503;105;1962015;-70
2021/06/11 05:31:56;;;;;;;12.60;6.73;;;;;;;19.92;68.06;98855.62;402386;101;1985921;-70
2021/06/11 05:33:02;;;;;;;11.63;6.38;;;;;;;19.79;68.14;98855.47;375595;105;1962079;-70
2021/06/11 05:34:14;;;;;;;10.79;7.02;;;;;;;19.91;68.05;98859.48;360319;104;2071996;-70
2021/06/11 05:35:20;;;;;;;14.00;6.41;;;;;;;19.75;68.14;98858.78;348576;107;1961969;-71
2021/06/11 05:36:45;;;;;;;10.18;6.46;;;;;;;19.72;68.28;98869.51;341493;107;2431982;-70
2021/06/11 05:37:58;;;;;;;11.81;7.97;;;;;;;19.72;68.59;98866.77;390292;104;2071939;-70
2021/06/11 05:39:05;;;;;;;11.26;6.78;;;;;;;19.53;69.07;98870.16;377913;105;1968977;-70